Saturday, August 18, 2018, 1:58 PM GMT
Back to Local

CYHU, Saint Hubert Airport

Location: , , Canada Lat: 45.517
Local Time: 1:58 PM GMT (13:58 GMT) Lon: -73.417
Time Zone: GMT Elev: 88 ft

Show me the last for .
Show Decoded

2018-08-18 13:00 METAR CYHU 181300Z AUTO 01007G15KT 9SM CLR 19/15 A2991 RMK SLP130 DENSITY ALT
                 600FT =
2018-08-18 12:00 METAR CYHU 181200Z AUTO 01010KT 9SM BKN230 18/14 A2990 RMK SLP128 DENSITY ALT
                 400FT =
2018-08-18 11:00 METAR CYHU 181100Z AUTO 36007KT 9SM BKN230 BKN250 17/14 A2989 RMK SLP123 DENSITY
                 ALT 300FT =
2018-08-18 10:00 METAR CYHU 181000Z AUTO 36007KT 9SM BKN200 BKN220 17/15 A2988 RMK SLP118 DENSITY
                 ALT 300FT =
2018-08-18 09:17 METAR CYHU 180917Z AUTO 36007KT 9SM SCT016 BKN026 OVC220 17/15 A2986 RMK SLP115
                 DENSITY ALT 300FT =
2018-08-18 09:00 METAR CYHU 180900Z AUTO 36007KT 9SM BKN016 17/15 A2986 RMK SLP113 DENSITY ALT
                 400FT =
2018-08-18 08:00 METAR CYHU 180800Z AUTO 36009KT 9SM OVC014 17/15 A2985 RMK SLP110 DENSITY ALT
                 400FT =
2018-08-18 07:00 METAR CYHU 180700Z AUTO 35010G17KT 9SM OVC010 17/15 A2984 RMK SLP106 DENSITY ALT
                 400FT =
2018-08-18 06:20 METAR CYHU 180620Z AUTO 36009KT 9SM OVC010 17/16 A2984 RMK SLP107 DENSITY ALT
                 400FT =
2018-08-18 06:00 METAR CYHU 180600Z AUTO 35009KT 9SM OVC008 17/16 A2984 RMK SLP108 DENSITY ALT
                 400FT =
2018-08-18 05:34 METAR CYHU 180534Z AUTO 36011KT 9SM OVC008 18/17 A2984 RMK SLP106 DENSITY ALT
                 400FT =
2018-08-18 05:21 METAR CYHU 180521Z AUTO 36010G16KT 9SM -RA OVC008 18/17 A2984 RMK SLP106 DENSITY
                 ALT 400FT =
2018-08-18 05:00 METAR CYHU 180500Z AUTO 35009KT 9SM OVC008 18/17 A2984 RMK SLP107 DENSITY ALT
                 500FT =
2018-08-18 04:00 METAR CYHU 180400Z AUTO 01006KT 350V050 9SM OVC010 18/17 A2983 RMK SLP104
                 DENSITY ALT 500FT =
2018-08-18 03:05 METAR CYHU 180305Z AUTO 02012KT 9SM OVC010 18/17 A2983 RMK SLP102 DENSITY ALT
                 500FT =
2018-08-18 03:00 METAR CYHU 180300Z AUTO 02011KT 9SM OVC008 18/17 A2983 RMK SLP103 DENSITY ALT
                 500FT =
2018-08-18 02:30 METAR CYHU 180230Z AUTO 01012G20KT 9SM BKN008 BKN014 OVC021 18/17 A2983 RMK
                 SLP103 DENSITY ALT 500FT =
2018-08-18 02:24 METAR CYHU 180224Z AUTO 02014G20KT 9SM SCT008 BKN014 OVC021 18/17 A2983 RMK
                 SLP103 DENSITY ALT 500FT =
2018-08-18 02:21 METAR CYHU 180221Z AUTO 01014G20KT 9SM BKN008 BKN014 OVC021 18/17 A2983 RMK
                 SLP103 DENSITY ALT 500FT =
2018-08-18 02:13 METAR CYHU 180213Z AUTO 01014G21KT 9SM -RA BKN008 BKN014 OVC019 18/17 A2983 RMK
                 SLP103 DENSITY ALT 500FT =
2018-08-18 02:10 METAR CYHU 180210Z AUTO 01018G26KT 9SM -RA SCT008 BKN014 OVC019 18/17 A2983 RMK
                 SLP103 DENSITY ALT 500FT =
2018-08-18 02:01 METAR CYHU 180201Z AUTO 01018G23KT 320V020 6SM -RA BR BKN008 OVC011 18/17 A2983
                 RMK SLP103 DENSITY ALT 500FT =
2018-08-18 02:00 METAR CYHU 180200Z AUTO 36018G23KT 320V020 5SM -RA BR BKN008 OVC011 18/17 A2983
                 RMK SLP102 DENSITY ALT 500FT =
2018-08-18 01:54 METAR CYHU 180154Z AUTO 34013G23KT 5SM RA BR OVC006 18/17 A2984 RMK PRESRR
                 SLP106 DENSITY ALT 500FT =
2018-08-18 01:51 METAR CYHU 180151Z AUTO 33017G23KT 320V020 6SM RA BR OVC008 18/17 A2983 RMK
                 PRESRR SLP105 DENSITY ALT 500FT =
2018-08-18 01:47 METAR CYHU 180147Z AUTO 35018KT 8SM +RA BKN008 OVC060 19/18 A2982 RMK SLP101
                 DENSITY ALT 600FT =
2018-08-18 01:45 METAR CYHU 180145Z AUTO 36017G22KT 9SM -RA BKN008 BKN031 OVC060 19/17 A2982 RMK
                 SLP100 DENSITY ALT 600FT =
2018-08-18 01:39 METAR CYHU 180139Z AUTO 36014G22KT 6SM BR SCT004 BKN009 BKN031 OVC065 19/18
                 A2982 RMK SLP101 DENSITY ALT 600FT =
2018-08-18 01:33 METAR CYHU 180133Z AUTO 01015G20KT 4SM BR BKN006 BKN022 BKN032 OVC065 20/19
                 A2981 RMK SLP098 DENSITY ALT 700FT =
2018-08-18 01:32 METAR CYHU 180132Z AUTO 01015G20KT 4SM BR SCT004 BKN019 BKN032 OVC065 20/19
                 A2981 RMK SLP098 DENSITY ALT 800FT =
2018-08-18 01:31 METAR CYHU 180131Z AUTO 01014G19KT 4SM BR SCT004 SCT012 BKN029 OVC065 20/19
                 A2981 RMK SLP098 DENSITY ALT 800FT =
2018-08-18 01:29 METAR CYHU 180129Z AUTO 36014KT 240V020 5SM BR SCT007 BKN023 BKN033 OVC065 21/20
                 A2982 RMK SLP098 DENSITY ALT 900FT =
2018-08-18 01:28 METAR CYHU 180128Z AUTO 35013KT 220V020 5SM BR SCT009 SCT021 BKN033 OVC065 21/20
                 A2982 RMK SLP098 DENSITY ALT 900FT =
2018-08-18 01:27 METAR CYHU 180127Z AUTO 35013KT 220V020 6SM BR SCT009 SCT021 BKN033 OVC065 22/20
                 A2982 RMK SLP098 DENSITY ALT 900FT =
2018-08-18 01:23 METAR CYHU 180123Z AUTO 35003KT 190V360 9SM SCT019 BKN033 BKN055 OVC065 23/22
                 A2981 RMK SLP097 DENSITY ALT 1100FT =
2018-08-18 01:16 METAR CYHU 180116Z AUTO 21002KT 8SM -RA SCT021 BKN033 BKN055 OVC068 23/22 A2981
                 RMK SLP096 DENSITY ALT 1100FT =
2018-08-18 01:14 METAR CYHU 180114Z AUTO 20003KT 8SM -RA BKN021 BKN033 BKN055 OVC070 23/22 A2981
                 RMK SLP096 DENSITY ALT 1100FT =
2018-08-18 01:03 METAR CYHU 180103Z AUTO 21007KT 8SM -RA SCT021 BKN027 BKN037 OVC055 23/22 A2982
                 RMK SLP098 DENSITY ALT 1100FT =
2018-08-18 01:01 METAR CYHU 180101Z AUTO 22007KT 8SM -RA BKN021 BKN029 OVC055 23/22 A2981 RMK
                 SLP097 DENSITY ALT 1100FT =
2018-08-18 01:00 METAR CYHU 180100Z AUTO 22006KT 8SM BKN021 BKN029 OVC055 23/22 A2981 RMK SLP097
                 DENSITY ALT 1100FT =
2018-08-18 00:56 METAR CYHU 180056Z AUTO 24005KT 9SM BKN021 BKN025 BKN032 OVC055 23/22 A2981 RMK
                 SLP097 DENSITY ALT 1100FT =
2018-08-18 00:00 METAR CYHU 180000Z AUTO 19004KT 8SM FEW027 SCT034 OVC044 23/22 A2980 RMK SLP092
                 DENSITY ALT 1100FT =
2018-08-17 23:23 METAR CYHU 172323Z AUTO 18006KT 8SM SCT030 BKN035 BKN046 OVC095 23/22 A2981 RMK
                 SLP097 DENSITY ALT 1100FT =
2018-08-17 23:01 METAR CYHU 172301Z AUTO 17007KT 9SM -RA BKN028 OVC037 23/22 A2982 RMK SLP100
                 DENSITY ALT 1100FT =
2018-08-17 23:00 METAR CYHU 172300Z AUTO 18008KT 9SM BKN028 OVC037 23/22 A2982 RMK SLP100 DENSITY
                 ALT 1100FT =
2018-08-17 22:00 METAR CYHU 172200Z AUTO 16007KT 8SM BKN026 OVC075 23/22 A2982 RMK SLP101 DENSITY
                 ALT 1000FT =
2018-08-17 21:00 METAR CYHU 172100Z AUTO 18008KT 9SM FEW010 OVC025 22/21 A2985 RMK SLP109 DENSITY
                 ALT 1000FT =
2018-08-17 20:39 METAR CYHU 172039Z AUTO 17007KT 9SM SCT010 OVC025 22/21 A2985 RMK SLP110 DENSITY
                 ALT 1000FT =
2018-08-17 20:36 METAR CYHU 172036Z AUTO 17008G15KT 9SM -RA SCT010 OVC025 22/21 A2985 RMK SLP110
                 DENSITY ALT 1000FT =
2018-08-17 20:29 METAR CYHU 172029Z AUTO 18009G15KT 7SM -RA BKN010 OVC025 22/21 A2985 RMK SLP111
                 DENSITY ALT 1000FT =
2018-08-17 20:23 METAR CYHU 172023Z AUTO 17010KT 4SM -RA BR BKN010 BKN016 OVC024 22/21 A2986 RMK
                 SLP113 DENSITY ALT 1000FT =
2018-08-17 20:22 METAR CYHU 172022Z AUTO 17010KT 3SM -RA BR BKN008 BKN013 OVC026 22/21 A2986 RMK
                 SLP113 DENSITY ALT 1000FT =
2018-08-17 20:19 METAR CYHU 172019Z AUTO 18010KT 3SM -RA BR FEW007 BKN011 BKN015 OVC026 22/21
                 A2986 RMK SLP113 DENSITY ALT 1000FT =
2018-08-17 20:17 METAR CYHU 172017Z AUTO 17010KT 3SM -RA BR BKN009 BKN017 OVC026 22/21 A2986 RMK
                 SLP114 DENSITY ALT 1000FT =
2018-08-17 20:16 METAR CYHU 172016Z AUTO 18010KT 3SM -RA BR FEW007 BKN011 BKN017 OVC026 22/21
                 A2986 RMK SLP114 DENSITY ALT 1000FT =
2018-08-17 20:15 METAR CYHU 172015Z AUTO 18010KT 3SM -RA BR BKN009 BKN015 OVC026 22/21 A2986 RMK
                 SLP114 DENSITY ALT 1000FT =
2018-08-17 20:00 METAR CYHU 172000Z AUTO 19007KT 3SM -RA BR SCT009 BKN014 OVC026 22/21 A2987 RMK
                 SLP116 DENSITY ALT 1000FT =
2018-08-17 19:57 METAR CYHU 171957Z AUTO 18006KT 4SM -RA BR SCT009 BKN014 OVC026 22/21 A2987 RMK
                 SLP116 DENSITY ALT 1000FT =
2018-08-17 19:54 METAR CYHU 171954Z AUTO 19007KT 5SM BR SCT009 BKN014 OVC026 23/21 A2987 RMK
                 SLP117 DENSITY ALT 1000FT =
2018-08-17 19:47 METAR CYHU 171947Z AUTO 18008KT 9SM SCT009 BKN012 BKN026 OVC035 23/21 A2987 RMK
                 SLP118 DENSITY ALT 1000FT =
2018-08-17 19:39 METAR CYHU 171939Z AUTO 18009KT 6SM BR SCT009 SCT012 BKN026 OVC037 22/21 A2988
                 RMK SLP119 DENSITY ALT 1000FT =
2018-08-17 19:37 METAR CYHU 171937Z AUTO 18007KT 5SM BR SCT009 SCT012 BKN026 OVC037 22/21 A2988
                 RMK SLP119 DENSITY ALT 1000FT =
2018-08-17 19:36 METAR CYHU 171936Z AUTO 18007KT 5SM -RA BR SCT009 SCT012 BKN026 OVC037 23/22
                 A2988 RMK SLP119 DENSITY ALT 1000FT =
2018-08-17 19:34 METAR CYHU 171934Z AUTO 18007G15KT 5SM -RA BR SCT009 SCT012 BKN024 OVC037 22/21
                 A2988 RMK SLP120 DENSITY ALT 1000FT =
2018-08-17 19:23 METAR CYHU 171923Z AUTO 18008KT 6SM -RA BR FEW009 SCT012 BKN024 OVC046 23/22
                 A2988 RMK SLP121 DENSITY ALT 1000FT =
2018-08-17 19:11 METAR CYHU 171911Z AUTO 16007KT 5SM -RA BR FEW014 BKN024 BKN033 OVC044 22/21
                 A2989 RMK SLP123 DENSITY ALT 900FT =
2018-08-17 19:00 METAR CYHU 171900Z AUTO 17007KT 4SM RA BR FEW028 OVC046 22/21 A2990 RMK SLP126
                 DENSITY ALT 900FT =
2018-08-17 18:25 METAR CYHU 171825Z AUTO 15005KT 4SM RA BR BKN050 OVC065 22/20 A2991 RMK SLP131
                 DENSITY ALT 800FT =
2018-08-17 18:16 METAR CYHU 171816Z AUTO 16006KT 5SM +RA BR BKN055 OVC067 22/20 A2992 RMK SLP133
                 DENSITY ALT 900FT =
2018-08-17 18:00 METAR CYHU 171800Z AUTO 12005KT 9SM -RA FEW035 BKN049 OVC065 22/20 A2992 RMK
                 SLP134 DENSITY ALT 900FT =
2018-08-17 17:23 METAR CYHU 171723Z AUTO 17005KT 110V180 9SM -RA OVC048 23/19 A2994 RMK SLP140
                 DENSITY ALT 1000FT =
2018-08-17 17:00 METAR CYHU 171700Z AUTO 10004KT 080V150 9SM OVC055 23/19 A2994 RMK SLP141
                 DENSITY ALT 1000FT =
2018-08-17 16:35 METAR CYHU 171635Z AUTO 10003KT 9SM OVC060 23/19 A2995 RMK SLP144 DENSITY ALT
                 900FT =
2018-08-17 16:17 METAR CYHU 171617Z AUTO 11005KT 9SM -RA OVC060 22/18 A2996 RMK SLP146 DENSITY
                 ALT 900FT =
2018-08-17 16:00 METAR CYHU 171600Z AUTO 13006KT 9SM OVC070 23/18 A2996 RMK SLP147 DENSITY ALT
                 900FT =
2018-08-17 15:00 METAR CYHU 171500Z AUTO 10006KT 9SM BKN055 BKN120 BKN150 22/17 A2998 RMK SLP155
                 DENSITY ALT 800FT =
2018-08-17 14:02 METAR CYHU 171402Z AUTO 09007KT 9SM BKN060 OVC078 20/16 A3000 RMK SLP161 DENSITY
                 ALT 500FT =
2018-08-17 14:00 METAR CYHU 171400Z AUTO 10006KT 9SM -RA BKN060 OVC078 20/16 A3000 RMK SLP162
                 DENSITY ALT 500FT =

Support USWX by starting your Amazon purchase here.